PWSweather.com
Personal Weather Stations
Station Observations
K4FB1
Clubhouse Heritage, Lakeland, FL 33812

Clubhouse HeritageLakeland, FL 33812

Lat: 27.969224, Lon: -81.897769

Elevation: 145

Station Type: Davis Vantage Pro2

http://www.ClubhouseWX.com

High Low Average
Temperature 98.8°F37.1°C 77.3°F25.2°C 89.0°F31.7°C
Dew Point 76.5°F24.7°C 70.8°F21.6°C 73.1°F22.8°C
Winds 6.0 mph 9.7 kmh Calm Calm 4.0 mph ENE6.4 kmh ENE
Wind Gusts 15.0 mph24.1 kmh 2.0 mph3.2 kmh 11.0 mph17.7 kmh
Humidity 86% 42% 62%
Pressure 30.15 in1021.0 mb 30.08 in1018.6 mb -
Precipitation 0.00 in0.0 mm - -
Hour Temp Dew Point Humidity Winds Wind Gusts Pressure Precip Precip Rate Daily Precip Total
12:00 AM 94.0°F34.4°C 77.5°F25.3°C 59% 4.0 mph ESE6.4 kmh ESE 13.0 mph20.9 kmh 30.16 in1021.3 mb 0.00 in0.0 mm 0.00 in0.0 mm 0.00 in0.0 mm
12:55 PM 94.5°F34.7°C 75.8°F24.3°C 55% 5.0 mph E8.0 kmh E 4.0 mph6.4 kmh 30.15 in1021.0 mb 0.00 in0.0 mm 0.00 in0.0 mm 0.00 in0.0 mm
01:00 PM 95.1°F35.1°C 75.3°F24.1°C 53% 4.0 mph ENE6.4 kmh ENE 9.0 mph14.5 kmh 30.15 in1021.0 mb 0.00 in0.0 mm 0.00 in0.0 mm 0.00 in0.0 mm
01:05 PM 95.5°F35.3°C 75.6°F24.2°C 53% 4.0 mph ENE6.4 kmh ENE 13.0 mph20.9 kmh 30.15 in1021.0 mb 0.00 in0.0 mm 0.00 in0.0 mm 0.00 in0.0 mm
01:10 PM 95.6°F35.3°C 74.6°F23.7°C 51% 6.0 mph ENE9.7 kmh ENE 13.0 mph20.9 kmh 30.15 in1021.0 mb 0.00 in0.0 mm 0.00 in0.0 mm 0.00 in0.0 mm
01:15 PM 95.7°F35.4°C 75.3°F24.1°C 52% 6.0 mph ENE9.7 kmh ENE 12.0 mph19.3 kmh 30.14 in1020.7 mb 0.00 in0.0 mm 0.00 in0.0 mm 0.00 in0.0 mm
01:20 PM 95.8°F35.4°C 76.5°F24.7°C 54% 5.0 mph E8.0 kmh E 11.0 mph17.7 kmh 30.14 in1020.7 mb 0.00 in0.0 mm 0.00 in0.0 mm 0.00 in0.0 mm
01:25 PM 95.3°F35.2°C 75.5°F24.2°C 53% 5.0 mph ENE8.0 kmh ENE 13.0 mph20.9 kmh 30.14 in1020.7 mb 0.00 in0.0 mm 0.00 in0.0 mm 0.00 in0.0 mm
01:30 PM 94.6°F34.8°C 74.8°F23.8°C 53% 5.0 mph NE8.0 kmh NE 13.0 mph20.9 kmh 30.14 in1020.7 mb 0.00 in0.0 mm 0.00 in0.0 mm 0.00 in0.0 mm
01:35 PM 94.9°F34.9°C 75.1°F23.9°C 53% 4.0 mph NE6.4 kmh NE 10.0 mph16.1 kmh 30.14 in1020.7 mb 0.00 in0.0 mm 0.00 in0.0 mm 0.00 in0.0 mm
01:40 PM 95.5°F35.3°C 74.5°F23.6°C 51% 4.0 mph NE6.4 kmh NE 11.0 mph17.7 kmh 30.14 in1020.7 mb 0.00 in0.0 mm 0.00 in0.0 mm 0.00 in0.0 mm
01:45 PM 95.8°F35.4°C 73.6°F23.1°C 49% 5.0 mph ENE8.0 kmh ENE 11.0 mph17.7 kmh 30.14 in1020.7 mb 0.00 in0.0 mm 0.00 in0.0 mm 0.00 in0.0 mm
01:50 PM 95.9°F35.5°C 73.7°F23.2°C 49% 6.0 mph E9.7 kmh E 13.0 mph20.9 kmh 30.14 in1020.7 mb 0.00 in0.0 mm 0.00 in0.0 mm 0.00 in0.0 mm
01:55 PM 96.2°F35.7°C 73.3°F22.9°C 48% 5.0 mph ENE8.0 kmh ENE 13.0 mph20.9 kmh 30.14 in1020.7 mb 0.00 in0.0 mm 0.00 in0.0 mm 0.00 in0.0 mm
02:00 PM 96.2°F35.7°C 73.3°F22.9°C 48% 5.0 mph ENE8.0 kmh ENE 11.0 mph17.7 kmh 30.13 in1020.3 mb 0.00 in0.0 mm 0.00 in0.0 mm 0.00 in0.0 mm
02:05 PM 96.3°F35.7°C 72.8°F22.7°C 47% 5.0 mph E8.0 kmh E 10.0 mph16.1 kmh 30.13 in1020.3 mb 0.00 in0.0 mm 0.00 in0.0 mm 0.00 in0.0 mm
02:10 PM 96.5°F35.8°C 72.3°F22.4°C 46% 5.0 mph ENE8.0 kmh ENE 14.0 mph22.5 kmh 30.13 in1020.3 mb 0.00 in0.0 mm 0.00 in0.0 mm 0.00 in0.0 mm
02:15 PM 96.4°F35.8°C 72.9°F22.7°C 47% 6.0 mph NE9.7 kmh NE 14.0 mph22.5 kmh 30.13 in1020.3 mb 0.00 in0.0 mm 0.00 in0.0 mm 0.00 in0.0 mm
02:20 PM 96.1°F35.6°C 73.8°F23.2°C 49% 6.0 mph ENE9.7 kmh ENE 13.0 mph20.9 kmh 30.13 in1020.3 mb 0.00 in0.0 mm 0.00 in0.0 mm 0.00 in0.0 mm
02:25 PM 96.0°F35.6°C 73.1°F22.8°C 48% 5.0 mph ENE8.0 kmh ENE 12.0 mph19.3 kmh 30.12 in1020.0 mb 0.00 in0.0 mm 0.00 in0.0 mm 0.00 in0.0 mm
02:30 PM 96.2°F35.7°C 73.3°F22.9°C 48% 5.0 mph ENE8.0 kmh ENE 13.0 mph20.9 kmh 30.12 in1020.0 mb 0.00 in0.0 mm 0.00 in0.0 mm 0.00 in0.0 mm
02:35 PM 96.5°F35.8°C 72.3°F22.4°C 46% 5.0 mph ENE8.0 kmh ENE 13.0 mph20.9 kmh 30.12 in1020.0 mb 0.00 in0.0 mm 0.00 in0.0 mm 0.00 in0.0 mm
02:40 PM 96.9°F36.1°C 72.0°F22.2°C 45% 6.0 mph ENE9.7 kmh ENE 13.0 mph20.9 kmh 30.11 in1019.6 mb 0.00 in0.0 mm 0.00 in0.0 mm 0.00 in0.0 mm
02:45 PM 97.4°F36.3°C 72.5°F22.5°C 45% 5.0 mph E8.0 kmh E 13.0 mph20.9 kmh 30.11 in1019.6 mb 0.00 in0.0 mm 0.00 in0.0 mm 0.00 in0.0 mm
02:50 PM 97.4°F36.3°C 71.8°F22.1°C 44% 5.0 mph E8.0 kmh E 12.0 mph19.3 kmh 30.11 in1019.6 mb 0.00 in0.0 mm 0.00 in0.0 mm 0.00 in0.0 mm
02:55 PM 97.5°F36.4°C 73.2°F22.9°C 46% 5.0 mph E8.0 kmh E 12.0 mph19.3 kmh 30.11 in1019.6 mb 0.00 in0.0 mm 0.00 in0.0 mm 0.00 in0.0 mm
03:00 PM 97.7°F36.5°C 74.1°F23.4°C 47% 5.0 mph E8.0 kmh E 12.0 mph19.3 kmh 30.11 in1019.6 mb 0.00 in0.0 mm 0.00 in0.0 mm 0.00 in0.0 mm
03:05 PM 97.7°F36.5°C 72.1°F22.3°C 44% 5.0 mph NE8.0 kmh NE 13.0 mph20.9 kmh 30.10 in1019.3 mb 0.00 in0.0 mm 0.00 in0.0 mm 0.00 in0.0 mm
03:10 PM 97.6°F36.4°C 73.3°F22.9°C 46% 5.0 mph ENE8.0 kmh ENE 13.0 mph20.9 kmh 30.10 in1019.3 mb 0.00 in0.0 mm 0.00 in0.0 mm 0.00 in0.0 mm
03:15 PM 97.8°F36.6°C 74.2°F23.4°C 47% 5.0 mph E8.0 kmh E 11.0 mph17.7 kmh 30.10 in1019.3 mb 0.00 in0.0 mm 0.00 in0.0 mm 0.00 in0.0 mm
03:20 PM 97.8°F36.6°C 72.9°F22.7°C 45% 5.0 mph E8.0 kmh E 15.0 mph24.1 kmh 30.10 in1019.3 mb 0.00 in0.0 mm 0.00 in0.0 mm 0.00 in0.0 mm
03:25 PM 97.8°F36.6°C 70.8°F21.6°C 42% 6.0 mph NE9.7 kmh NE 15.0 mph24.1 kmh 30.10 in1019.3 mb 0.00 in0.0 mm 0.00 in0.0 mm 0.00 in0.0 mm
03:30 PM 97.9°F36.6°C 72.9°F22.7°C 45% 5.0 mph NE8.0 kmh NE 12.0 mph19.3 kmh 30.10 in1019.3 mb 0.00 in0.0 mm 0.00 in0.0 mm 0.00 in0.0 mm
03:35 PM 98.2°F36.8°C 72.6°F22.6°C 44% 4.0 mph ENE6.4 kmh ENE 11.0 mph17.7 kmh 30.10 in1019.3 mb 0.00 in0.0 mm 0.00 in0.0 mm 0.00 in0.0 mm
03:40 PM 98.4°F36.9°C 72.7°F22.6°C 44% 4.0 mph E6.4 kmh E 13.0 mph20.9 kmh 30.10 in1019.3 mb 0.00 in0.0 mm 0.00 in0.0 mm 0.00 in0.0 mm
03:45 PM 98.7°F37.1°C 73.7°F23.2°C 45% 4.0 mph E6.4 kmh E 13.0 mph20.9 kmh 30.10 in1019.3 mb 0.00 in0.0 mm 0.00 in0.0 mm 0.00 in0.0 mm
03:50 PM 98.8°F37.1°C 73.1°F22.8°C 44% 4.0 mph ENE6.4 kmh ENE 11.0 mph17.7 kmh 30.10 in1019.3 mb 0.00 in0.0 mm 0.00 in0.0 mm 0.00 in0.0 mm
03:55 PM 98.3°F36.8°C 72.0°F22.2°C 43% 5.0 mph ENE8.0 kmh ENE 11.0 mph17.7 kmh 30.10 in1019.3 mb 0.00 in0.0 mm 0.00 in0.0 mm 0.00 in0.0 mm
04:00 PM 98.3°F36.8°C 72.6°F22.6°C 44% 5.0 mph ENE8.0 kmh ENE 12.0 mph19.3 kmh 30.10 in1019.3 mb 0.00 in0.0 mm 0.00 in0.0 mm 0.00 in0.0 mm
04:05 PM 98.3°F36.8°C 71.3°F21.8°C 42% 6.0 mph E9.7 kmh E 13.0 mph20.9 kmh 30.10 in1019.3 mb 0.00 in0.0 mm 0.00 in0.0 mm 0.00 in0.0 mm
04:10 PM 98.2°F36.8°C 72.6°F22.6°C 44% 5.0 mph E8.0 kmh E 13.0 mph20.9 kmh 30.10 in1019.3 mb 0.00 in0.0 mm 0.00 in0.0 mm 0.00 in0.0 mm
04:15 PM 98.5°F36.9°C 72.1°F22.3°C 43% 5.0 mph ENE8.0 kmh ENE 10.0 mph16.1 kmh 30.10 in1019.3 mb 0.00 in0.0 mm 0.00 in0.0 mm 0.00 in0.0 mm
04:20 PM 98.8°F37.1°C 73.1°F22.8°C 44% 5.0 mph E8.0 kmh E 11.0 mph17.7 kmh 30.10 in1019.3 mb 0.00 in0.0 mm 0.00 in0.0 mm 0.00 in0.0 mm
04:25 PM 98.7°F37.1°C 72.3°F22.4°C 43% 5.0 mph E8.0 kmh E 11.0 mph17.7 kmh 30.10 in1019.3 mb 0.00 in0.0 mm 0.00 in0.0 mm 0.00 in0.0 mm
04:30 PM 98.7°F37.1°C 73.0°F22.8°C 44% 5.0 mph E8.0 kmh E 12.0 mph19.3 kmh 30.10 in1019.3 mb 0.00 in0.0 mm 0.00 in0.0 mm 0.00 in0.0 mm
04:35 PM 98.5°F36.9°C 72.1°F22.3°C 43% 4.0 mph E6.4 kmh E 12.0 mph19.3 kmh 30.10 in1019.3 mb 0.00 in0.0 mm 0.00 in0.0 mm 0.00 in0.0 mm
04:40 PM 98.6°F37.0°C 72.2°F22.3°C 43% 4.0 mph E6.4 kmh E 11.0 mph17.7 kmh 30.10 in1019.3 mb 0.00 in0.0 mm 0.00 in0.0 mm 0.00 in0.0 mm
04:45 PM 98.4°F36.9°C 72.7°F22.6°C 44% 5.0 mph ENE8.0 kmh ENE 12.0 mph19.3 kmh 30.09 in1019.0 mb 0.00 in0.0 mm 0.00 in0.0 mm 0.00 in0.0 mm
04:50 PM 98.4°F36.9°C 72.1°F22.3°C 43% 5.0 mph ENE8.0 kmh ENE 12.0 mph19.3 kmh 30.09 in1019.0 mb 0.00 in0.0 mm 0.00 in0.0 mm 0.00 in0.0 mm
04:55 PM 98.5°F36.9°C 73.5°F23.1°C 45% 4.0 mph E6.4 kmh E 12.0 mph19.3 kmh 30.09 in1019.0 mb 0.00 in0.0 mm 0.00 in0.0 mm 0.00 in0.0 mm
05:00 PM 98.5°F36.9°C 73.5°F23.1°C 45% 5.0 mph E8.0 kmh E 15.0 mph24.1 kmh 30.09 in1019.0 mb 0.00 in0.0 mm 0.00 in0.0 mm 0.00 in0.0 mm
05:05 PM 97.8°F36.6°C 72.9°F22.7°C 45% 6.0 mph E9.7 kmh E 15.0 mph24.1 kmh 30.09 in1019.0 mb 0.00 in0.0 mm 0.00 in0.0 mm 0.00 in0.0 mm
05:10 PM 96.4°F35.8°C 72.2°F22.3°C 46% 6.0 mph E9.7 kmh E 12.0 mph19.3 kmh 30.09 in1019.0 mb 0.00 in0.0 mm 0.00 in0.0 mm 0.00 in0.0 mm
05:15 PM 96.0°F35.6°C 73.1°F22.8°C 48% 4.0 mph E6.4 kmh E 11.0 mph17.7 kmh 30.09 in1019.0 mb 0.00 in0.0 mm 0.00 in0.0 mm 0.00 in0.0 mm
05:20 PM 96.1°F35.6°C 73.2°F22.9°C 48% 3.0 mph ENE4.8 kmh ENE 10.0 mph16.1 kmh 30.09 in1019.0 mb 0.00 in0.0 mm 0.00 in0.0 mm 0.00 in0.0 mm
05:25 PM 96.2°F35.7°C 73.3°F22.9°C 48% 4.0 mph E6.4 kmh E 10.0 mph16.1 kmh 30.09 in1019.0 mb 0.00 in0.0 mm 0.00 in0.0 mm 0.00 in0.0 mm
05:30 PM 96.2°F35.7°C 73.3°F22.9°C 48% 4.0 mph E6.4 kmh E 14.0 mph22.5 kmh 30.09 in1019.0 mb 0.00 in0.0 mm 0.00 in0.0 mm 0.00 in0.0 mm
05:35 PM 96.0°F35.6°C 73.1°F22.8°C 48% 4.0 mph E6.4 kmh E 14.0 mph22.5 kmh 30.09 in1019.0 mb 0.00 in0.0 mm 0.00 in0.0 mm 0.00 in0.0 mm
05:40 PM 95.6°F35.3°C 72.8°F22.7°C 48% 5.0 mph E8.0 kmh E 14.0 mph22.5 kmh 30.09 in1019.0 mb 0.00 in0.0 mm 0.00 in0.0 mm 0.00 in0.0 mm
05:45 PM 95.1°F35.1°C 72.9°F22.7°C 49% 5.0 mph ENE8.0 kmh ENE 12.0 mph19.3 kmh 30.09 in1019.0 mb 0.00 in0.0 mm 0.00 in0.0 mm 0.00 in0.0 mm
05:50 PM 94.7°F34.8°C 72.0°F22.2°C 48% 5.0 mph E8.0 kmh E 13.0 mph20.9 kmh 30.09 in1019.0 mb 0.00 in0.0 mm 0.00 in0.0 mm 0.00 in0.0 mm
05:55 PM 94.3°F34.6°C 72.2°F22.3°C 49% 5.0 mph ENE8.0 kmh ENE 13.0 mph20.9 kmh 30.09 in1019.0 mb 0.00 in0.0 mm 0.00 in0.0 mm 0.00 in0.0 mm
06:00 PM 93.9°F34.4°C 73.0°F22.8°C 51% 5.0 mph ENE8.0 kmh ENE 11.0 mph17.7 kmh 30.09 in1019.0 mb 0.00 in0.0 mm 0.00 in0.0 mm 0.00 in0.0 mm
06:05 PM 93.4°F34.1°C 72.6°F22.6°C 51% 4.0 mph E6.4 kmh E 11.0 mph17.7 kmh 30.09 in1019.0 mb 0.00 in0.0 mm 0.00 in0.0 mm 0.00 in0.0 mm
06:10 PM 92.7°F33.7°C 72.5°F22.5°C 52% 5.0 mph E8.0 kmh E 11.0 mph17.7 kmh 30.09 in1019.0 mb 0.00 in0.0 mm 0.00 in0.0 mm 0.00 in0.0 mm
06:15 PM 92.0°F33.3°C 73.0°F22.8°C 54% 4.0 mph E6.4 kmh E 11.0 mph17.7 kmh 30.09 in1019.0 mb 0.00 in0.0 mm 0.00 in0.0 mm 0.00 in0.0 mm
06:20 PM 91.5°F33.1°C 73.1°F22.8°C 55% 4.0 mph ENE6.4 kmh ENE 10.0 mph16.1 kmh 30.09 in1019.0 mb 0.00 in0.0 mm 0.00 in0.0 mm 0.00 in0.0 mm
06:25 PM 91.0°F32.8°C 72.6°F22.6°C 55% 5.0 mph ENE8.0 kmh ENE 12.0 mph19.3 kmh 30.09 in1019.0 mb 0.00 in0.0 mm 0.00 in0.0 mm 0.00 in0.0 mm
06:30 PM 90.5°F32.5°C 72.1°F22.3°C 55% 5.0 mph ENE8.0 kmh ENE 12.0 mph19.3 kmh 30.09 in1019.0 mb 0.00 in0.0 mm 0.00 in0.0 mm 0.00 in0.0 mm
06:35 PM 90.1°F32.3°C 72.3°F22.4°C 56% 5.0 mph ENE8.0 kmh ENE 11.0 mph17.7 kmh 30.09 in1019.0 mb 0.00 in0.0 mm 0.00 in0.0 mm 0.00 in0.0 mm
06:40 PM 89.7°F32.1°C 72.4°F22.4°C 57% 5.0 mph ENE8.0 kmh ENE 12.0 mph19.3 kmh 30.09 in1019.0 mb 0.00 in0.0 mm 0.00 in0.0 mm 0.00 in0.0 mm
06:45 PM 89.3°F31.8°C 72.1°F22.3°C 57% 5.0 mph ENE8.0 kmh ENE 12.0 mph19.3 kmh 30.09 in1019.0 mb 0.00 in0.0 mm 0.00 in0.0 mm 0.00 in0.0 mm
06:50 PM 89.0°F31.7°C 72.3°F22.4°C 58% 5.0 mph ENE8.0 kmh ENE 12.0 mph19.3 kmh 30.09 in1019.0 mb 0.00 in0.0 mm 0.00 in0.0 mm 0.00 in0.0 mm
06:55 PM 88.8°F31.6°C 72.1°F22.3°C 58% 5.0 mph ENE8.0 kmh ENE 10.0 mph16.1 kmh 30.09 in1019.0 mb 0.00 in0.0 mm 0.00 in0.0 mm 0.00 in0.0 mm
07:00 PM 88.6°F31.4°C 71.9°F22.2°C 58% 4.0 mph ENE6.4 kmh ENE 10.0 mph16.1 kmh 30.08 in1018.6 mb 0.00 in0.0 mm 0.00 in0.0 mm 0.00 in0.0 mm
07:05 PM 88.3°F31.3°C 72.7°F22.6°C 60% 4.0 mph ENE6.4 kmh ENE 12.0 mph19.3 kmh 30.08 in1018.6 mb 0.00 in0.0 mm 0.00 in0.0 mm 0.00 in0.0 mm
07:10 PM 88.1°F31.2°C 73.4°F23.0°C 62% 4.0 mph ENE6.4 kmh ENE 12.0 mph19.3 kmh 30.09 in1019.0 mb 0.00 in0.0 mm 0.00 in0.0 mm 0.00 in0.0 mm
07:15 PM 87.6°F30.9°C 73.4°F23.0°C 63% 5.0 mph ENE8.0 kmh ENE 11.0 mph17.7 kmh 30.09 in1019.0 mb 0.00 in0.0 mm 0.00 in0.0 mm 0.00 in0.0 mm
07:20 PM 87.1°F30.6°C 73.0°F22.8°C 63% 5.0 mph ENE8.0 kmh ENE 11.0 mph17.7 kmh 30.09 in1019.0 mb 0.00 in0.0 mm 0.00 in0.0 mm 0.00 in0.0 mm
07:25 PM 86.6°F30.3°C 73.0°F22.8°C 64% 5.0 mph ENE8.0 kmh ENE 11.0 mph17.7 kmh 30.09 in1019.0 mb 0.00 in0.0 mm 0.00 in0.0 mm 0.00 in0.0 mm
07:30 PM 86.3°F30.2°C 72.7°F22.6°C 64% 5.0 mph ENE8.0 kmh ENE 14.0 mph22.5 kmh 30.09 in1019.0 mb 0.00 in0.0 mm 0.00 in0.0 mm 0.00 in0.0 mm
07:35 PM 86.0°F30.0°C 72.9°F22.7°C 65% 5.0 mph ENE8.0 kmh ENE 14.0 mph22.5 kmh 30.09 in1019.0 mb 0.00 in0.0 mm 0.00 in0.0 mm 0.00 in0.0 mm
07:40 PM 85.7°F29.8°C 72.6°F22.6°C 65% 4.0 mph ENE6.4 kmh ENE 9.0 mph14.5 kmh 30.09 in1019.0 mb 0.00 in0.0 mm 0.00 in0.0 mm 0.00 in0.0 mm
07:45 PM 85.4°F29.7°C 72.3°F22.4°C 65% 4.0 mph ENE6.4 kmh ENE 10.0 mph16.1 kmh 30.10 in1019.3 mb 0.00 in0.0 mm 0.00 in0.0 mm 0.00 in0.0 mm
07:50 PM 85.2°F29.6°C 72.6°F22.6°C 66% 5.0 mph ENE8.0 kmh ENE 13.0 mph20.9 kmh 30.10 in1019.3 mb 0.00 in0.0 mm 0.00 in0.0 mm 0.00 in0.0 mm
07:55 PM 85.0°F29.4°C 72.4°F22.4°C 66% 5.0 mph E8.0 kmh E 13.0 mph20.9 kmh 30.10 in1019.3 mb 0.00 in0.0 mm 0.00 in0.0 mm 0.00 in0.0 mm
08:00 PM 84.8°F29.3°C 72.6°F22.6°C 67% 5.0 mph E8.0 kmh E 15.0 mph24.1 kmh 30.10 in1019.3 mb 0.00 in0.0 mm 0.00 in0.0 mm 0.00 in0.0 mm
08:05 PM 84.7°F29.3°C 72.5°F22.5°C 67% 5.0 mph E8.0 kmh E 15.0 mph24.1 kmh 30.10 in1019.3 mb 0.00 in0.0 mm 0.00 in0.0 mm 0.00 in0.0 mm
08:10 PM 84.5°F29.2°C 72.8°F22.7°C 68% 5.0 mph E8.0 kmh E 14.0 mph22.5 kmh 30.10 in1019.3 mb 0.00 in0.0 mm 0.00 in0.0 mm 0.00 in0.0 mm
08:15 PM 84.4°F29.1°C 72.7°F22.6°C 68% 4.0 mph E6.4 kmh E 14.0 mph22.5 kmh 30.10 in1019.3 mb 0.00 in0.0 mm 0.00 in0.0 mm 0.00 in0.0 mm
08:20 PM 84.3°F29.1°C 73.0°F22.8°C 69% 4.0 mph E6.4 kmh E 15.0 mph24.1 kmh 30.10 in1019.3 mb 0.00 in0.0 mm 0.00 in0.0 mm 0.00 in0.0 mm
08:25 PM 84.1°F28.9°C 73.3°F22.9°C 70% 5.0 mph E8.0 kmh E 15.0 mph24.1 kmh 30.10 in1019.3 mb 0.00 in0.0 mm 0.00 in0.0 mm 0.00 in0.0 mm
08:30 PM 83.9°F28.8°C 73.5°F23.1°C 71% 5.0 mph ENE8.0 kmh ENE 13.0 mph20.9 kmh 30.11 in1019.6 mb 0.00 in0.0 mm 0.00 in0.0 mm 0.00 in0.0 mm
08:35 PM 83.7°F28.7°C 73.3°F22.9°C 71% 5.0 mph ENE8.0 kmh ENE 13.0 mph20.9 kmh 30.11 in1019.6 mb 0.00 in0.0 mm 0.00 in0.0 mm 0.00 in0.0 mm
08:40 PM 83.5°F28.6°C 73.5°F23.1°C 72% 5.0 mph E8.0 kmh E 12.0 mph19.3 kmh 30.11 in1019.6 mb 0.00 in0.0 mm 0.00 in0.0 mm 0.00 in0.0 mm
08:45 PM 83.3°F28.5°C 73.3°F22.9°C 72% 6.0 mph E9.7 kmh E 13.0 mph20.9 kmh 30.11 in1019.6 mb 0.00 in0.0 mm 0.00 in0.0 mm 0.00 in0.0 mm
08:50 PM 83.1°F28.4°C 73.1°F22.8°C 72% 5.0 mph E8.0 kmh E 13.0 mph20.9 kmh 30.11 in1019.6 mb 0.00 in0.0 mm 0.00 in0.0 mm 0.00 in0.0 mm
08:55 PM 83.0°F28.3°C 73.4°F23.0°C 73% 5.0 mph E8.0 kmh E 11.0 mph17.7 kmh 30.11 in1019.6 mb 0.00 in0.0 mm 0.00 in0.0 mm 0.00 in0.0 mm
09:00 PM 82.8°F28.2°C 73.3°F22.9°C 73% 4.0 mph E6.4 kmh E 11.0 mph17.7 kmh 30.11 in1019.6 mb 0.00 in0.0 mm 0.00 in0.0 mm 0.00 in0.0 mm
09:05 PM 82.6°F28.1°C 73.1°F22.8°C 73% 4.0 mph E6.4 kmh E 11.0 mph17.7 kmh 30.11 in1019.6 mb 0.00 in0.0 mm 0.00 in0.0 mm 0.00 in0.0 mm
09:10 PM 82.5°F28.1°C 73.4°F23.0°C 74% 4.0 mph E6.4 kmh E 11.0 mph17.7 kmh 30.12 in1020.0 mb 0.00 in0.0 mm 0.00 in0.0 mm 0.00 in0.0 mm
09:15 PM 82.4°F28.0°C 73.3°F22.9°C 74% 4.0 mph E6.4 kmh E 11.0 mph17.7 kmh 30.12 in1020.0 mb 0.00 in0.0 mm 0.00 in0.0 mm 0.00 in0.0 mm
09:20 PM 82.3°F27.9°C 73.6°F23.1°C 75% 4.0 mph E6.4 kmh E 13.0 mph20.9 kmh 30.12 in1020.0 mb 0.00 in0.0 mm 0.00 in0.0 mm 0.00 in0.0 mm
09:25 PM 82.1°F27.8°C 73.4°F23.0°C 75% 4.0 mph E6.4 kmh E 13.0 mph20.9 kmh 30.12 in1020.0 mb 0.00 in0.0 mm 0.00 in0.0 mm 0.00 in0.0 mm
09:30 PM 82.0°F27.8°C 73.3°F22.9°C 75% 5.0 mph E8.0 kmh E 12.0 mph19.3 kmh 30.12 in1020.0 mb 0.00 in0.0 mm 0.00 in0.0 mm 0.00 in0.0 mm
09:35 PM 81.9°F27.7°C 73.2°F22.9°C 75% 5.0 mph E8.0 kmh E 12.0 mph19.3 kmh 30.12 in1020.0 mb 0.00 in0.0 mm 0.00 in0.0 mm 0.00 in0.0 mm
09:40 PM 81.8°F27.7°C 73.1°F22.8°C 75% 4.0 mph E6.4 kmh E 10.0 mph16.1 kmh 30.13 in1020.3 mb 0.00 in0.0 mm 0.00 in0.0 mm 0.00 in0.0 mm
09:45 PM 81.7°F27.6°C 73.4°F23.0°C 76% 3.0 mph E4.8 kmh E 7.0 mph11.3 kmh 30.13 in1020.3 mb 0.00 in0.0 mm 0.00 in0.0 mm 0.00 in0.0 mm
09:50 PM 81.5°F27.5°C 73.2°F22.9°C 76% 3.0 mph E4.8 kmh E 10.0 mph16.1 kmh 30.13 in1020.3 mb 0.00 in0.0 mm 0.00 in0.0 mm 0.00 in0.0 mm
09:55 PM 81.4°F27.4°C 73.1°F22.8°C 76% 4.0 mph E6.4 kmh E 10.0 mph16.1 kmh 30.13 in1020.3 mb 0.00 in0.0 mm 0.00 in0.0 mm 0.00 in0.0 mm
10:00 PM 81.3°F27.4°C 73.4°F23.0°C 77% 3.0 mph E4.8 kmh E 10.0 mph16.1 kmh 30.13 in1020.3 mb 0.00 in0.0 mm 0.00 in0.0 mm 0.00 in0.0 mm
10:05 PM 81.2°F27.3°C 73.3°F22.9°C 77% 3.0 mph E4.8 kmh E 8.0 mph12.9 kmh 30.13 in1020.3 mb 0.00 in0.0 mm 0.00 in0.0 mm 0.00 in0.0 mm
10:10 PM 81.0°F27.2°C 73.1°F22.8°C 77% 3.0 mph E4.8 kmh E 8.0 mph12.9 kmh 30.13 in1020.3 mb 0.00 in0.0 mm 0.00 in0.0 mm 0.00 in0.0 mm
10:15 PM 80.9°F27.2°C 73.0°F22.8°C 77% 3.0 mph ENE4.8 kmh ENE 11.0 mph17.7 kmh 30.13 in1020.3 mb 0.00 in0.0 mm 0.00 in0.0 mm 0.00 in0.0 mm
10:20 PM 80.8°F27.1°C 72.9°F22.7°C 77% 3.0 mph E4.8 kmh E 12.0 mph19.3 kmh 30.13 in1020.3 mb 0.00 in0.0 mm 0.00 in0.0 mm 0.00 in0.0 mm
10:25 PM 80.7°F27.1°C 73.2°F22.9°C 78% 3.0 mph E4.8 kmh E 12.0 mph19.3 kmh 30.13 in1020.3 mb 0.00 in0.0 mm 0.00 in0.0 mm 0.00 in0.0 mm
10:30 PM 80.6°F27.0°C 73.1°F22.8°C 78% 3.0 mph ENE4.8 kmh ENE 7.0 mph11.3 kmh 30.13 in1020.3 mb 0.00 in0.0 mm 0.00 in0.0 mm 0.00 in0.0 mm
10:35 PM 80.5°F26.9°C 73.0°F22.8°C 78% 3.0 mph E4.8 kmh E 9.0 mph14.5 kmh 30.13 in1020.3 mb 0.00 in0.0 mm 0.00 in0.0 mm 0.00 in0.0 mm
10:40 PM 80.4°F26.9°C 73.3°F22.9°C 79% 4.0 mph E6.4 kmh E 9.0 mph14.5 kmh 30.13 in1020.3 mb 0.00 in0.0 mm 0.00 in0.0 mm 0.00 in0.0 mm
10:45 PM 80.3°F26.8°C 73.2°F22.9°C 79% 3.0 mph ENE4.8 kmh ENE 8.0 mph12.9 kmh 30.13 in1020.3 mb 0.00 in0.0 mm 0.00 in0.0 mm 0.00 in0.0 mm
10:50 PM 80.2°F26.8°C 73.1°F22.8°C 79% 3.0 mph ENE4.8 kmh ENE 7.0 mph11.3 kmh 30.13 in1020.3 mb 0.00 in0.0 mm 0.00 in0.0 mm 0.00 in0.0 mm
10:55 PM 80.1°F26.7°C 73.0°F22.8°C 79% 3.0 mph ENE4.8 kmh ENE 7.0 mph11.3 kmh 30.13 in1020.3 mb 0.00 in0.0 mm 0.00 in0.0 mm 0.00 in0.0 mm
11:00 PM 80.0°F26.7°C 73.3°F22.9°C 80% 3.0 mph E4.8 kmh E 8.0 mph12.9 kmh 30.13 in1020.3 mb 0.00 in0.0 mm 0.00 in0.0 mm 0.00 in0.0 mm
11:05 PM 80.0°F26.7°C 73.3°F22.9°C 80% 3.0 mph ENE4.8 kmh ENE 8.0 mph12.9 kmh 30.13 in1020.3 mb 0.00 in0.0 mm 0.00 in0.0 mm 0.00 in0.0 mm
11:10 PM 80.0°F26.7°C 73.3°F22.9°C 80% 3.0 mph E4.8 kmh E 8.0 mph12.9 kmh 30.13 in1020.3 mb 0.00 in0.0 mm 0.00 in0.0 mm 0.00 in0.0 mm
11:15 PM 79.9°F26.6°C 73.2°F22.9°C 80% 3.0 mph E4.8 kmh E 8.0 mph12.9 kmh 30.13 in1020.3 mb 0.00 in0.0 mm 0.00 in0.0 mm 0.00 in0.0 mm
11:20 PM 79.7°F26.5°C 73.3°F22.9°C 81% 3.0 mph E4.8 kmh E 7.0 mph11.3 kmh 30.13 in1020.3 mb 0.00 in0.0 mm 0.00 in0.0 mm 0.00 in0.0 mm
11:25 PM 79.7°F26.5°C 73.3°F22.9°C 81% 3.0 mph ENE4.8 kmh ENE 7.0 mph11.3 kmh 30.13 in1020.3 mb 0.00 in0.0 mm 0.00 in0.0 mm 0.00 in0.0 mm
11:30 PM 79.6°F26.4°C 73.3°F22.9°C 81% 3.0 mph E4.8 kmh E 8.0 mph12.9 kmh 30.13 in1020.3 mb 0.00 in0.0 mm 0.00 in0.0 mm 0.00 in0.0 mm
11:35 PM 79.6°F26.4°C 73.3°F22.9°C 81% 3.0 mph E4.8 kmh E 8.0 mph12.9 kmh 30.13 in1020.3 mb 0.00 in0.0 mm 0.00 in0.0 mm 0.00 in0.0 mm
11:40 PM 79.4°F26.3°C 73.4°F23.0°C 82% 3.0 mph E4.8 kmh E 7.0 mph11.3 kmh 30.13 in1020.3 mb 0.00 in0.0 mm 0.00 in0.0 mm 0.00 in0.0 mm
11:45 PM 79.4°F26.3°C 73.4°F23.0°C 82% 2.0 mph E3.2 kmh E 6.0 mph9.7 kmh 30.13 in1020.3 mb 0.00 in0.0 mm 0.00 in0.0 mm 0.00 in0.0 mm
11:50 PM 79.3°F26.3°C 73.3°F22.9°C 82% 2.0 mph ENE3.2 kmh ENE 6.0 mph9.7 kmh 30.13 in1020.3 mb 0.00 in0.0 mm 0.00 in0.0 mm 0.00 in0.0 mm
11:55 PM 79.2°F26.2°C 73.2°F22.9°C 82% 3.0 mph ENE4.8 kmh ENE 6.0 mph9.7 kmh 30.13 in1020.3 mb 0.00 in0.0 mm 0.00 in0.0 mm 0.00 in0.0 mm